Time;durP1;ratioP1;P1;durP2;ratioP2;P2;SDS_P1;SDS_P2;PMS_P1;PMS_P2;Temp;Humidity;BMP_temperature;BMP_pressure;BME280_temperature;BME280_humidity;BME280_pressure;Samples;Min_cycle;Max_cycle;Signal;HPM_P1;HPM_P2
2024/01/13 00:01:59;;;;;;;20.40;7.32;;;;;;;;;;5072046;28;20111;-67
2024/01/13 00:04:24;;;;;;;22.88;7.80;;;;;;;;;;5072140;28;20448;-67
2024/01/13 00:06:50;;;;;;;21.45;7.80;;;;;;;;;;5072138;28;20518;-67
2024/01/13 00:09:15;;;;;;;22.48;7.65;;;;;;;;;;5071899;28;20038;-67
2024/01/13 00:11:41;;;;;;;20.48;8.02;;;;;;;;;;5072111;28;20027;-67
2024/01/13 00:14:06;;;;;;;18.60;7.40;;;;;;;;;;5071851;28;20059;-66
2024/01/13 00:16:31;;;;;;;20.02;7.22;;;;;;;;;;5072099;28;20028;-66
2024/01/13 00:18:57;;;;;;;16.55;6.25;;;;;;;;;;5071785;28;20478;-67
2024/01/13 00:21:22;;;;;;;18.55;6.78;;;;;;;;;;5071885;28;20086;-66
2024/01/13 00:23:48;;;;;;;11.00;6.00;;;;;;;;;;5072951;28;20411;-67
2024/01/13 00:26:13;;;;;;;19.20;7.65;;;;;;;;;;5075534;28;20112;-67
2024/01/13 00:28:38;;;;;;;16.83;8.15;;;;;;;;;;5075661;28;20032;-67
2024/01/13 00:31:06;;;;;;;18.45;7.93;;;;;;;;;;5075596;28;20024;-67
2024/01/13 00:33:32;;;;;;;16.55;7.00;;;;;;;;;;5075374;28;20028;-67
2024/01/13 00:35:58;;;;;;;13.45;5.40;;;;;;;;;;5075456;28;20111;-67
2024/01/13 00:38:23;;;;;;;15.30;5.78;;;;;;;;;;5075533;28;20020;-67
2024/01/13 00:40:48;;;;;;;15.23;5.75;;;;;;;;;;5075493;28;20021;-67
2024/01/13 00:43:14;;;;;;;19.88;8.00;;;;;;;;;;5075470;28;20434;-66
2024/01/13 00:45:39;;;;;;;12.23;4.28;;;;;;;;;;5075304;28;20052;-67
2024/01/13 00:48:05;;;;;;;14.50;5.88;;;;;;;;;;5075147;28;20459;-67
2024/01/13 00:50:32;;;;;;;23.95;6.88;;;;;;;;;;5075284;28;20387;-67
2024/01/13 00:52:58;;;;;;;19.50;6.50;;;;;;;;;;5075094;28;20045;-67
2024/01/13 00:55:23;;;;;;;17.30;5.72;;;;;;;;;;5075392;28;20028;-67
2024/01/13 00:57:49;;;;;;;15.10;5.82;;;;;;;;;;5075057;28;20107;-67
2024/01/13 01:00:14;;;;;;;21.52;6.65;;;;;;;;;;5075207;28;20103;-67
2024/01/13 01:02:40;;;;;;;15.15;5.97;;;;;;;;;;5074889;28;20025;-67
2024/01/13 01:05:06;;;;;;;11.05;4.13;;;;;;;;;;5075110;28;20020;-67
2024/01/13 01:07:32;;;;;;;20.27;4.63;;;;;;;;;;5075104;28;20063;-67
2024/01/13 01:09:57;;;;;;;10.20;4.47;;;;;;;;;;5074816;28;20025;-67
2024/01/13 01:12:23;;;;;;;16.83;4.97;;;;;;;;;;5074975;28;20412;-67
2024/01/13 01:14:48;;;;;;;19.35;8.35;;;;;;;;;;5074397;28;20028;-67
2024/01/13 01:17:14;;;;;;;10.27;4.40;;;;;;;;;;5074733;28;20031;-67
2024/01/13 01:19:39;;;;;;;17.20;5.57;;;;;;;;;;5074834;28;20020;-67
2024/01/13 01:22:04;;;;;;;10.13;3.45;;;;;;;;;;5074736;28;20111;-67
2024/01/13 01:24:30;;;;;;;12.60;4.70;;;;;;;;;;5074793;28;20047;-67
2024/01/13 01:26:55;;;;;;;17.08;6.97;;;;;;;;;;5074596;28;20446;-67
2024/01/13 01:29:21;;;;;;;9.93;4.28;;;;;;;;;;5074363;28;20028;-67
2024/01/13 01:31:46;;;;;;;14.95;6.28;;;;;;;;;;5074511;28;20112;-67
2024/01/13 01:34:11;;;;;;;15.90;5.47;;;;;;;;;;5074520;28;20032;-67
2024/01/13 01:36:40;;;;;;;15.27;5.00;;;;;;;;;;5073040;28;20414;-67
2024/01/13 01:39:05;;;;;;;14.27;4.90;;;;;;;;;;5074357;28;20029;-67
2024/01/13 01:41:32;;;;;;;9.82;5.10;;;;;;;;;;5074265;28;20021;-67
2024/01/13 01:43:57;;;;;;;11.00;5.15;;;;;;;;;;5074017;28;20034;-67
2024/01/13 01:46:23;;;;;;;14.00;5.53;;;;;;;;;;5074239;28;20028;-67
2024/01/13 01:48:55;;;;;;;21.08;5.63;;;;;;;;;;5074232;28;20497;-67
2024/01/13 01:51:21;;;;;;;9.80;4.85;;;;;;;;;;5074208;28;20028;-67
2024/01/13 01:53:47;;;;;;;12.55;4.50;;;;;;;;;;5074065;28;20399;-67
2024/01/13 01:56:25;;;;;;;13.13;4.68;;;;;;;;;;5074074;28;20416;-67
2024/01/13 01:58:52;;;;;;;14.32;5.32;;;;;;;;;;5073935;28;20028;-67
2024/01/13 02:01:19;;;;;;;24.00;7.15;;;;;;;;;;5073968;28;20021;-67
2024/01/13 02:03:45;;;;;;;12.30;4.70;;;;;;;;;;5073997;28;20046;-67
2024/01/13 02:06:11;;;;;;;17.35;5.68;;;;;;;;;;5073948;28;20021;-67
2024/01/13 02:08:37;;;;;;;11.60;4.90;;;;;;;;;;5073872;28;20023;-67
2024/01/13 02:11:02;;;;;;;14.02;4.70;;;;;;;;;;5073835;28;20033;-67
2024/01/13 02:13:28;;;;;;;13.48;5.07;;;;;;;;;;5073564;28;20357;-67
2024/01/13 02:15:53;;;;;;;13.23;3.88;;;;;;;;;;5073684;28;20032;-67
2024/01/13 02:18:18;;;;;;;15.50;4.18;;;;;;;;;;5073590;28;20032;-67
2024/01/13 02:20:44;;;;;;;7.00;3.28;;;;;;;;;;5073674;28;20024;-66
2024/01/13 02:23:09;;;;;;;14.30;4.47;;;;;;;;;;5073568;28;20440;-67
2024/01/13 02:25:35;;;;;;;11.68;4.25;;;;;;;;;;5073529;28;20028;-67
2024/01/13 02:28:00;;;;;;;13.75;3.72;;;;;;;;;;5073268;28;20036;-67
2024/01/13 02:30:25;;;;;;;8.40;2.70;;;;;;;;;;5073464;28;20020;-67
2024/01/13 02:32:51;;;;;;;11.52;3.92;;;;;;;;;;5073286;28;20025;-66
2024/01/13 02:35:16;;;;;;;11.77;3.60;;;;;;;;;;5073302;28;20020;-67
2024/01/13 02:37:42;;;;;;;11.82;3.17;;;;;;;;;;5073198;28;20029;-67
2024/01/13 02:40:09;;;;;;;16.25;3.58;;;;;;;;;;5073018;28;20028;-66
2024/01/13 02:42:35;;;;;;;7.72;3.20;;;;;;;;;;5073066;28;20032;-67
2024/01/13 02:45:01;;;;;;;11.27;3.70;;;;;;;;;;5073063;28;20055;-67
2024/01/13 02:47:58;;;;;;;8.93;2.95;;;;;;;;;;5072602;28;20476;-67
2024/01/13 02:50:24;;;;;;;10.38;3.28;;;;;;;;;;5071071;28;20044;-67
2024/01/13 02:52:50;;;;;;;11.57;3.63;;;;;;;;;;5072675;28;20048;-67
2024/01/13 02:55:15;;;;;;;8.57;3.22;;;;;;;;;;5072947;28;20020;-67
2024/01/13 02:57:41;;;;;;;5.90;2.65;;;;;;;;;;5072740;28;20035;-67
2024/01/13 03:00:08;;;;;;;7.85;3.38;;;;;;;;;;5072879;28;20060;-67
2024/01/13 03:02:34;;;;;;;7.68;3.28;;;;;;;;;;5072848;28;20383;-67
2024/01/13 03:04:59;;;;;;;7.03;2.97;;;;;;;;;;5072807;28;20031;-67
2024/01/13 03:07:26;;;;;;;8.55;2.60;;;;;;;;;;5072843;28;20535;-67
2024/01/13 03:09:51;;;;;;;18.58;3.80;;;;;;;;;;5072796;28;20025;-66
2024/01/13 03:12:17;;;;;;;8.90;2.85;;;;;;;;;;5072317;28;20429;-67
2024/01/13 03:14:42;;;;;;;18.38;3.30;;;;;;;;;;5072542;28;20082;-67
2024/01/13 03:17:07;;;;;;;5.57;2.60;;;;;;;;;;5072674;28;20143;-67
2024/01/13 03:19:33;;;;;;;10.75;2.80;;;;;;;;;;5072823;28;20017;-67
2024/01/13 03:21:58;;;;;;;5.53;2.05;;;;;;;;;;5072683;28;20463;-67
2024/01/13 03:24:24;;;;;;;15.98;4.05;;;;;;;;;;5072681;28;20052;-67
2024/01/13 03:26:49;;;;;;;12.75;2.85;;;;;;;;;;5072318;28;20017;-67
2024/01/13 03:29:15;;;;;;;10.48;2.50;;;;;;;;;;5072485;28;20017;-67
2024/01/13 03:31:40;;;;;;;13.25;3.03;;;;;;;;;;5072422;28;20115;-67
2024/01/13 03:34:06;;;;;;;15.57;2.92;;;;;;;;;;5072633;28;20024;-67
2024/01/13 03:36:31;;;;;;;13.80;2.95;;;;;;;;;;5072428;28;20039;-67
2024/01/13 03:38:56;;;;;;;10.85;2.70;;;;;;;;;;5072469;28;20024;-67
2024/01/13 03:41:22;;;;;;;12.27;2.67;;;;;;;;;;5072210;28;20482;-67
2024/01/13 03:43:48;;;;;;;6.97;2.45;;;;;;;;;;5072463;28;20028;-67
2024/01/13 03:46:14;;;;;;;11.13;2.80;;;;;;;;;;5072334;28;20451;-67
2024/01/13 03:48:41;;;;;;;10.43;2.95;;;;;;;;;;5072136;28;20034;-67
2024/01/13 03:51:08;;;;;;;7.03;2.38;;;;;;;;;;5072386;28;20103;-67
2024/01/13 03:53:33;;;;;;;14.85;2.90;;;;;;;;;;5054136;28;20048;-67
2024/01/13 03:55:58;;;;;;;5.88;1.92;;;;;;;;;;5072216;28;20429;-67
2024/01/13 03:58:24;;;;;;;11.95;2.70;;;;;;;;;;5072627;28;20028;-67
2024/01/13 04:00:49;;;;;;;9.20;2.38;;;;;;;;;;5076226;28;20021;-67
2024/01/13 04:03:15;;;;;;;9.70;2.00;;;;;;;;;;5076174;28;20063;-67
2024/01/13 04:05:40;;;;;;;6.93;2.47;;;;;;;;;;5075878;28;20075;-67
2024/01/13 04:08:06;;;;;;;9.65;2.03;;;;;;;;;;5076256;28;20020;-66
2024/01/13 04:10:31;;;;;;;6.68;1.75;;;;;;;;;;5076286;28;20146;-67
2024/01/13 04:12:57;;;;;;;9.85;1.75;;;;;;;;;;5076068;28;20021;-67
2024/01/13 04:15:22;;;;;;;9.40;2.70;;;;;;;;;;5075852;28;20024;-66
2024/01/13 04:17:48;;;;;;;10.35;1.95;;;;;;;;;;5075934;28;20036;-67
2024/01/13 04:20:13;;;;;;;7.15;2.63;;;;;;;;;;5075841;28;20028;-67
2024/01/13 04:22:38;;;;;;;7.97;2.85;;;;;;;;;;5075923;28;20020;-67
2024/01/13 04:25:04;;;;;;;14.57;2.45;;;;;;;;;;5075678;28;20056;-67
2024/01/13 04:27:30;;;;;;;7.95;1.70;;;;;;;;;;5075599;28;20028;-66
2024/01/13 04:29:55;;;;;;;11.43;2.88;;;;;;;;;;5075846;28;20047;-67
2024/01/13 04:32:20;;;;;;;6.32;2.10;;;;;;;;;;5075632;28;20020;-66
2024/01/13 04:34:46;;;;;;;10.27;1.85;;;;;;;;;;5075413;28;20032;-67
2024/01/13 04:37:11;;;;;;;10.48;2.90;;;;;;;;;;5075454;28;20364;-67
2024/01/13 04:39:37;;;;;;;10.93;2.45;;;;;;;;;;5057347;28;20052;-67
2024/01/13 04:42:02;;;;;;;7.97;2.30;;;;;;;;;;5075185;28;20059;-67
2024/01/13 04:44:28;;;;;;;8.55;1.88;;;;;;;;;;5075258;28;20056;-67
2024/01/13 04:46:53;;;;;;;9.23;1.55;;;;;;;;;;5075391;28;20029;-67
2024/01/13 04:49:19;;;;;;;7.47;1.77;;;;;;;;;;5075380;28;20054;-67
2024/01/13 04:51:44;;;;;;;5.40;1.85;;;;;;;;;;5075304;28;20100;-67
2024/01/13 04:54:11;;;;;;;5.70;1.80;;;;;;;;;;5074890;28;20411;-67
2024/01/13 04:56:36;;;;;;;10.45;2.17;;;;;;;;;;5075228;28;20024;-67
2024/01/13 04:59:02;;;;;;;7.55;1.65;;;;;;;;;;5075010;28;20028;-67
2024/01/13 05:01:28;;;;;;;8.45;2.53;;;;;;;;;;5075080;28;20024;-67
2024/01/13 05:03:53;;;;;;;12.60;2.70;;;;;;;;;;5074964;28;20033;-67
2024/01/13 05:06:18;;;;;;;9.75;2.92;;;;;;;;;;5075191;28;20107;-67
2024/01/13 05:08:44;;;;;;;6.70;1.65;;;;;;;;;;5074971;28;20360;-67
2024/01/13 05:11:09;;;;;;;6.43;2.00;;;;;;;;;;5074657;28;20020;-67
2024/01/13 05:13:35;;;;;;;6.63;1.77;;;;;;;;;;5075135;28;20020;-67
2024/01/13 05:16:00;;;;;;;9.90;3.10;;;;;;;;;;5074887;28;20074;-67
2024/01/13 05:18:26;;;;;;;6.05;2.05;;;;;;;;;;5074986;28;20025;-67
2024/01/13 05:20:52;;;;;;;5.82;1.35;;;;;;;;;;5074764;28;20099;-67
2024/01/13 05:23:18;;;;;;;7.70;1.70;;;;;;;;;;5074585;28;20078;-67
2024/01/13 05:25:43;;;;;;;4.43;1.65;;;;;;;;;;5074725;28;20016;-67
2024/01/13 05:28:09;;;;;;;3.40;1.70;;;;;;;;;;5074388;28;20025;-67
2024/01/13 05:30:34;;;;;;;8.07;1.77;;;;;;;;;;5074732;28;20020;-67
2024/01/13 05:33:01;;;;;;;8.85;1.83;;;;;;;;;;5074619;28;20028;-67
2024/01/13 05:35:27;;;;;;;5.30;1.75;;;;;;;;;;5074607;28;20530;-67
2024/01/13 05:37:52;;;;;;;8.88;1.77;;;;;;;;;;5074354;28;20170;-67
2024/01/13 05:40:19;;;;;;;8.80;2.05;;;;;;;;;;5074552;28;20059;-67
2024/01/13 05:42:45;;;;;;;7.82;2.05;;;;;;;;;;5074376;28;20028;-67
2024/01/13 05:45:11;;;;;;;5.75;1.88;;;;;;;;;;5074380;28;20035;-67
2024/01/13 05:47:36;;;;;;;8.65;1.95;;;;;;;;;;5074080;28;20384;-67
2024/01/13 05:50:02;;;;;;;6.88;2.10;;;;;;;;;;5074255;28;20028;-67
2024/01/13 05:52:28;;;;;;;8.32;1.73;;;;;;;;;;5073839;28;20047;-67
2024/01/13 05:54:53;;;;;;;11.05;2.35;;;;;;;;;;5074183;28;20534;-67
2024/01/13 05:57:18;;;;;;;9.23;2.28;;;;;;;;;;5074048;28;20024;-67
2024/01/13 05:59:44;;;;;;;4.88;2.05;;;;;;;;;;5074168;28;20379;-67
2024/01/13 06:02:09;;;;;;;8.15;2.03;;;;;;;;;;5074086;28;20020;-67
2024/01/13 06:04:35;;;;;;;7.15;1.70;;;;;;;;;;5073970;28;20060;-67
2024/01/13 06:07:04;;;;;;;8.77;2.00;;;;;;;;;;5073821;28;20032;-67
2024/01/13 06:09:30;;;;;;;3.92;1.90;;;;;;;;;;5073833;28;20024;-67
2024/01/13 06:11:56;;;;;;;6.13;2.05;;;;;;;;;;5073760;28;20063;-67
2024/01/13 06:14:21;;;;;;;7.30;2.00;;;;;;;;;;5073824;28;20033;-68
2024/01/13 06:16:47;;;;;;;6.50;1.50;;;;;;;;;;5073327;28;20124;-68
2024/01/13 06:19:12;;;;;;;6.45;1.38;;;;;;;;;;5073690;28;20039;-67
2024/01/13 06:21:42;;;;;;;6.50;1.45;;;;;;;;;;5072763;28;20111;-68
2024/01/13 06:24:08;;;;;;;5.65;1.48;;;;;;;;;;5073533;28;20025;-67
2024/01/13 06:26:40;;;;;;;5.90;1.42;;;;;;;;;;5073525;28;20063;-67
2024/01/13 06:29:06;;;;;;;2.80;1.45;;;;;;;;;;5073425;28;20503;-67
2024/01/13 06:31:32;;;;;;;3.72;1.45;;;;;;;;;;5055410;28;20399;-67
2024/01/13 06:33:57;;;;;;;5.18;2.25;;;;;;;;;;5073224;28;20040;-67
2024/01/13 06:36:23;;;;;;;4.47;1.60;;;;;;;;;;5073036;28;20024;-67
2024/01/13 06:38:48;;;;;;;3.67;1.58;;;;;;;;;;5073386;28;20039;-67
2024/01/13 06:41:14;;;;;;;4.50;1.95;;;;;;;;;;5073299;28;20078;-67
2024/01/13 06:43:39;;;;;;;4.80;1.60;;;;;;;;;;5073246;28;20454;-67
2024/01/13 06:46:07;;;;;;;2.35;1.30;;;;;;;;;;5073056;28;20070;-67
2024/01/13 06:48:32;;;;;;;7.45;1.65;;;;;;;;;;5072927;28;20040;-67
2024/01/13 06:50:57;;;;;;;7.10;1.55;;;;;;;;;;5073107;28;20375;-67
2024/01/13 06:53:23;;;;;;;2.95;1.27;;;;;;;;;;5072924;28;20041;-67
2024/01/13 06:55:48;;;;;;;5.50;1.25;;;;;;;;;;5073081;28;20418;-67
2024/01/13 06:58:14;;;;;;;8.02;1.55;;;;;;;;;;5072915;28;20028;-67
2024/01/13 07:00:39;;;;;;;1.42;1.00;;;;;;;;;;5072715;28;20446;-67
2024/01/13 07:03:04;;;;;;;4.10;1.25;;;;;;;;;;5072498;28;20468;-67
2024/01/13 07:05:30;;;;;;;1.77;1.10;;;;;;;;;;5072048;28;20123;-68
2024/01/13 07:07:59;;;;;;;1.92;1.20;;;;;;;;;;5066247;28;20021;-67
2024/01/13 07:10:25;;;;;;;1.63;1.00;;;;;;;;;;5052679;28;20484;-67
2024/01/13 07:12:50;;;;;;;2.85;1.00;;;;;;;;;;5052700;28;20029;-67
2024/01/13 07:15:16;;;;;;;2.65;1.20;;;;;;;;;;5066627;28;20032;-67
2024/01/13 07:17:41;;;;;;;1.10;0.85;;;;;;;;;;5072250;28;20435;-67
2024/01/13 07:20:07;;;;;;;3.10;0.90;;;;;;;;;;5072526;28;20025;-67
2024/01/13 07:22:34;;;;;;;1.70;0.85;;;;;;;;;;5072625;28;20417;-67
2024/01/13 07:24:59;;;;;;;0.90;0.77;;;;;;;;;;5072518;28;20029;-67
2024/01/13 07:27:25;;;;;;;0.85;0.70;;;;;;;;;;5072337;28;20558;-67
2024/01/13 07:29:50;;;;;;;1.27;0.70;;;;;;;;;;5072307;28;20479;-67
2024/01/13 07:32:16;;;;;;;0.70;0.70;;;;;;;;;;5072263;28;20426;-67
2024/01/13 07:34:42;;;;;;;0.70;0.70;;;;;;;;;;5070126;28;20032;-67
2024/01/13 07:37:08;;;;;;;2.75;1.00;;;;;;;;;;5058298;28;20024;-67
2024/01/13 07:39:33;;;;;;;1.15;0.90;;;;;;;;;;5079362;28;20017;-67
2024/01/13 07:41:58;;;;;;;2.80;0.90;;;;;;;;;;5065649;28;20070;-67
2024/01/13 07:44:24;;;;;;;1.90;1.00;;;;;;;;;;5072972;28;20495;-67
2024/01/13 07:46:50;;;;;;;1.58;0.90;;;;;;;;;;5072423;28;20032;-68
2024/01/13 07:49:16;;;;;;;1.38;0.90;;;;;;;;;;5083782;28;20096;-67
2024/01/13 07:51:41;;;;;;;6.10;1.38;;;;;;;;;;5068830;28;20021;-66
2024/01/13 07:54:07;;;;;;;1.15;0.85;;;;;;;;;;5083182;28;20494;-67
2024/01/13 07:56:32;;;;;;;1.75;0.88;;;;;;;;;;5077318;28;20029;-67
2024/01/13 07:58:58;;;;;;;2.40;0.90;;;;;;;;;;5071833;28;20066;-67
2024/01/13 08:01:23;;;;;;;1.42;0.80;;;;;;;;;;5075270;28;20040;-67
2024/01/13 08:03:49;;;;;;;0.73;0.73;;;;;;;;;;5071013;28;20024;-67
2024/01/13 08:06:16;;;;;;;2.17;0.90;;;;;;;;;;5070353;28;20107;-66
2024/01/13 08:08:41;;;;;;;1.85;0.90;;;;;;;;;;5070115;28;20086;-67
2024/01/13 08:11:07;;;;;;;1.73;1.00;;;;;;;;;;5070371;28;20028;-67
2024/01/13 08:13:32;;;;;;;1.55;1.05;;;;;;;;;;5070050;28;20029;-66
2024/01/13 08:15:58;;;;;;;1.95;1.08;;;;;;;;;;5069397;28;20072;-66
2024/01/13 08:18:24;;;;;;;1.30;0.98;;;;;;;;;;5070259;28;20432;-67
2024/01/13 08:20:51;;;;;;;0.70;0.70;;;;;;;;;;5069639;28;20012;-67
2024/01/13 08:23:17;;;;;;;1.48;0.80;;;;;;;;;;5070631;28;20070;-66
2024/01/13 08:25:42;;;;;;;0.93;0.80;;;;;;;;;;5070404;28;20460;-67
2024/01/13 08:28:08;;;;;;;2.13;0.88;;;;;;;;;;5070359;28;20029;-67
2024/01/13 08:30:33;;;;;;;0.80;0.80;;;;;;;;;;5070093;28;20021;-67
2024/01/13 08:32:59;;;;;;;1.63;0.93;;;;;;;;;;5070512;28;20025;-67
2024/01/13 08:35:24;;;;;;;0.68;0.68;;;;;;;;;;5071104;28;20031;-66
2024/01/13 08:37:51;;;;;;;0.68;0.68;;;;;;;;;;5071546;28;20028;-68
2024/01/13 08:40:17;;;;;;;2.00;1.48;;;;;;;;;;5071795;28;20052;-67
2024/01/13 08:42:42;;;;;;;1.00;0.70;;;;;;;;;;5071777;28;20033;-67
2024/01/13 08:45:08;;;;;;;1.33;0.80;;;;;;;;;;5073068;28;20027;-67
2024/01/13 08:47:33;;;;;;;0.98;0.80;;;;;;;;;;5075497;28;20024;-67
2024/01/13 08:49:59;;;;;;;0.98;0.90;;;;;;;;;;5075338;28;20098;-67
2024/01/13 08:52:24;;;;;;;1.20;0.70;;;;;;;;;;5075184;28;20052;-67
2024/01/13 08:54:50;;;;;;;1.00;0.82;;;;;;;;;;5075325;28;20367;-67
2024/01/13 08:57:15;;;;;;;2.85;0.80;;;;;;;;;;5075261;28;20474;-67
2024/01/13 08:59:40;;;;;;;1.83;0.80;;;;;;;;;;5074944;28;20460;-67
2024/01/13 09:02:06;;;;;;;0.70;0.70;;;;;;;;;;5074882;28;20115;-67
2024/01/13 09:04:32;;;;;;;0.75;0.70;;;;;;;;;;5075163;28;20028;-67
2024/01/13 09:06:57;;;;;;;1.38;0.82;;;;;;;;;;5075054;28;20054;-67
2024/01/13 09:09:23;;;;;;;0.93;0.73;;;;;;;;;;5074987;28;20037;-67
2024/01/13 09:11:48;;;;;;;0.85;0.70;;;;;;;;;;5074859;28;20478;-67
2024/01/13 09:14:14;;;;;;;1.23;0.90;;;;;;;;;;5074667;28;20055;-67
2024/01/13 09:16:39;;;;;;;3.03;1.05;;;;;;;;;;5074813;28;20374;-67
2024/01/13 09:19:05;;;;;;;2.78;0.75;;;;;;;;;;5074903;28;20108;-67
2024/01/13 09:21:30;;;;;;;2.20;0.90;;;;;;;;;;5074616;28;20032;-68
2024/01/13 09:23:57;;;;;;;1.08;0.80;;;;;;;;;;5074715;28;20032;-67
2024/01/13 09:26:23;;;;;;;0.77;0.73;;;;;;;;;;5074752;28;20065;-67
2024/01/13 09:28:49;;;;;;;1.92;1.35;;;;;;;;;;5074503;28;20028;-67
2024/01/13 09:31:15;;;;;;;1.27;0.90;;;;;;;;;;5074543;28;20424;-67
2024/01/13 09:33:40;;;;;;;3.17;1.38;;;;;;;;;;5074785;28;20042;-67
2024/01/13 09:36:06;;;;;;;2.10;1.40;;;;;;;;;;5074724;28;20021;-67
2024/01/13 09:38:31;;;;;;;2.63;1.73;;;;;;;;;;5074398;28;20082;-67
2024/01/13 09:40:57;;;;;;;4.25;1.90;;;;;;;;;;5074417;28;20021;-67
2024/01/13 09:43:27;;;;;;;3.95;1.75;;;;;;;;;;5074267;28;20019;-67
2024/01/13 09:45:53;;;;;;;2.97;1.50;;;;;;;;;;5073907;28;20021;-67
2024/01/13 09:48:21;;;;;;;3.45;1.50;;;;;;;;;;5074152;28;20032;-67
2024/01/13 09:50:52;;;;;;;2.67;1.98;;;;;;;;;;5074096;28;20024;-67
2024/01/13 09:53:28;;;;;;;1.55;1.00;;;;;;;;;;5073928;28;20059;-67
2024/01/13 09:56:05;;;;;;;1.67;1.15;;;;;;;;;;5073279;28;20056;-67
2024/01/13 09:58:31;;;;;;;1.00;0.88;;;;;;;;;;5073455;28;20029;-67
2024/01/13 10:00:58;;;;;;;2.35;0.90;;;;;;;;;;5073940;28;20028;-67
2024/01/13 10:03:23;;;;;;;1.23;0.90;;;;;;;;;;5073819;28;20052;-67
2024/01/13 10:05:51;;;;;;;1.35;1.02;;;;;;;;;;5073880;28;20028;-67
2024/01/13 10:08:23;;;;;;;1.23;1.00;;;;;;;;;;5073952;28;20514;-67
2024/01/13 10:10:49;;;;;;;1.58;1.13;;;;;;;;;;5073875;28;20108;-67
2024/01/13 10:13:14;;;;;;;1.73;0.80;;;;;;;;;;5073588;28;20103;-67
2024/01/13 10:15:39;;;;;;;0.77;0.70;;;;;;;;;;5073751;28;20376;-67
2024/01/13 10:18:06;;;;;;;1.92;1.00;;;;;;;;;;5073693;28;20403;-67
2024/01/13 10:20:32;;;;;;;1.42;1.08;;;;;;;;;;5073691;28;20056;-67
2024/01/13 10:22:57;;;;;;;1.65;0.80;;;;;;;;;;5073708;28;20529;-67
2024/01/13 10:25:23;;;;;;;2.22;1.30;;;;;;;;;;5073604;28;20471;-67
2024/01/13 10:27:49;;;;;;;1.95;1.27;;;;;;;;;;5073061;28;20036;-67
2024/01/13 10:30:15;;;;;;;1.73;1.27;;;;;;;;;;5073395;28;20024;-67
2024/01/13 10:32:42;;;;;;;1.48;1.10;;;;;;;;;;5073484;28;20028;-67
2024/01/13 10:35:08;;;;;;;2.28;1.10;;;;;;;;;;5073617;28;20019;-67
2024/01/13 10:37:35;;;;;;;1.63;1.10;;;;;;;;;;5073442;28;20107;-67
2024/01/13 10:40:00;;;;;;;2.03;1.38;;;;;;;;;;5073306;28;20020;-66
2024/01/13 10:42:37;;;;;;;3.10;1.42;;;;;;;;;;5072939;28;20017;-67
2024/01/13 10:45:07;;;;;;;2.90;1.20;;;;;;;;;;5073216;28;20024;-67
2024/01/13 10:47:38;;;;;;;1.95;1.23;;;;;;;;;;5073514;28;20434;-67
2024/01/13 10:50:05;;;;;;;3.00;1.40;;;;;;;;;;5073142;28;20491;-67
2024/01/13 10:52:41;;;;;;;2.08;1.10;;;;;;;;;;5072800;28;20131;-67
2024/01/13 10:55:09;;;;;;;3.03;1.40;;;;;;;;;;5072895;28;20028;-67
2024/01/13 10:57:36;;;;;;;2.00;1.50;;;;;;;;;;5088550;28;20060;-67
2024/01/13 11:00:02;;;;;;;3.55;1.20;;;;;;;;;;5072901;28;20426;-67
2024/01/13 11:02:32;;;;;;;1.77;1.20;;;;;;;;;;5072700;28;20048;-67
2024/01/13 11:04:59;;;;;;;3.40;1.30;;;;;;;;;;5073032;28;20036;-67
2024/01/13 11:07:25;;;;;;;1.45;1.10;;;;;;;;;;5072587;28;20079;-67
2024/01/13 11:09:53;;;;;;;1.60;1.17;;;;;;;;;;5072337;28;20099;-67
2024/01/13 11:12:27;;;;;;;1.55;1.00;;;;;;;;;;5072973;28;20107;-67
2024/01/13 11:15:20;;;;;;;1.77;0.88;;;;;;;;;;5072698;28;20023;-68
2024/01/13 11:17:46;;;;;;;1.00;0.88;;;;;;;;;;5072641;28;20720;-67
2024/01/13 11:20:12;;;;;;;1.63;1.10;;;;;;;;;;5072567;28;20020;-67
2024/01/13 11:22:41;;;;;;;1.73;1.20;;;;;;;;;;5072523;28;20039;-67
2024/01/13 11:25:26;;;;;;;2.00;1.20;;;;;;;;;;5072712;28;20099;-67
2024/01/13 11:28:02;;;;;;;1.55;1.10;;;;;;;;;;5052863;28;20048;-67
2024/01/13 11:30:37;;;;;;;1.85;1.20;;;;;;;;;;5083013;28;20074;-67
2024/01/13 11:33:09;;;;;;;1.50;1.00;;;;;;;;;;5091763;28;20024;-67
2024/01/13 11:35:36;;;;;;;1.23;0.90;;;;;;;;;;5092615;28;20051;-67
2024/01/13 11:38:05;;;;;;;1.33;0.98;;;;;;;;;;5092225;28;20501;-67
2024/01/13 11:40:32;;;;;;;1.98;1.40;;;;;;;;;;5090567;28;20032;-67
2024/01/13 11:43:00;;;;;;;2.22;1.40;;;;;;;;;;5060801;28;20074;-67
2024/01/13 11:45:55;;;;;;;1.60;1.10;;;;;;;;;;5082981;28;20024;-67
2024/01/13 11:48:29;;;;;;;3.00;1.38;;;;;;;;;;5062428;28;20040;-67
2024/01/13 11:50:55;;;;;;;2.30;1.20;;;;;;;;;;5070451;28;20060;-67
2024/01/13 11:53:35;;;;;;;2.58;1.52;;;;;;;;;;5070700;28;20064;-67
2024/01/13 11:56:03;;;;;;;2.38;1.40;;;;;;;;;;5065431;28;20090;-68
2024/01/13 11:58:29;;;;;;;3.40;1.55;;;;;;;;;;5068940;28;20061;-68
2024/01/13 12:00:55;;;;;;;2.15;1.10;;;;;;;;;;5071279;28;20107;-68
2024/01/13 12:03:21;;;;;;;1.67;1.15;;;;;;;;;;5071418;28;20463;-69
2024/01/13 12:05:46;;;;;;;1.88;1.20;;;;;;;;;;5071466;28;20462;-69
2024/01/13 12:08:12;;;;;;;1.55;1.13;;;;;;;;;;5071218;28;20020;-68
2024/01/13 12:10:45;;;;;;;1.67;1.25;;;;;;;;;;5071361;28;20387;-69
2024/01/13 12:13:17;;;;;;;2.65;1.80;;;;;;;;;;5067574;28;20017;-69
2024/01/13 12:15:46;;;;;;;2.60;1.60;;;;;;;;;;5071135;28;20020;-68
2024/01/13 12:18:21;;;;;;;1.40;1.20;;;;;;;;;;5071270;28;20407;-68
2024/01/13 12:20:55;;;;;;;2.55;1.67;;;;;;;;;;5074201;28;20017;-68
2024/01/13 12:23:20;;;;;;;1.95;1.13;;;;;;;;;;5074913;28;20027;-68
2024/01/13 12:25:46;;;;;;;1.10;1.00;;;;;;;;;;5075378;28;20016;-68
2024/01/13 12:28:11;;;;;;;1.02;0.90;;;;;;;;;;5075174;28;20107;-68
2024/01/13 12:30:39;;;;;;;3.97;1.20;;;;;;;;;;5075075;28;20116;-69
2024/01/13 12:33:05;;;;;;;1.48;1.20;;;;;;;;;;5075163;28;20027;-69
2024/01/13 12:35:32;;;;;;;1.70;1.40;;;;;;;;;;5075096;28;20028;-69
2024/01/13 12:37:58;;;;;;;1.10;0.98;;;;;;;;;;5074579;28;20021;-68
2024/01/13 12:40:24;;;;;;;2.72;1.20;;;;;;;;;;5074953;28;20020;-68
2024/01/13 12:42:49;;;;;;;2.10;1.35;;;;;;;;;;5074550;28;20470;-68
2024/01/13 12:45:16;;;;;;;1.80;1.20;;;;;;;;;;5074889;28;20024;-68
2024/01/13 12:47:44;;;;;;;2.08;1.70;;;;;;;;;;5074867;28;20027;-68
2024/01/13 12:50:10;;;;;;;2.85;1.13;;;;;;;;;;5074662;28;20024;-69
2024/01/13 12:52:39;;;;;;;1.45;1.20;;;;;;;;;;5074443;28;20037;-69
2024/01/13 12:55:05;;;;;;;1.75;1.08;;;;;;;;;;5072617;28;20017;-69
2024/01/13 12:57:31;;;;;;;1.80;1.10;;;;;;;;;;5074196;28;20047;-68
2024/01/13 12:59:57;;;;;;;2.17;1.25;;;;;;;;;;5074465;28;20417;-68
2024/01/13 13:02:23;;;;;;;3.38;1.52;;;;;;;;;;5071818;28;20106;-68
2024/01/13 13:04:49;;;;;;;4.28;2.10;;;;;;;;;;5075082;28;20061;-69
2024/01/13 13:07:16;;;;;;;7.05;2.45;;;;;;;;;;5074756;28;20069;-69
2024/01/13 13:09:42;;;;;;;5.80;1.95;;;;;;;;;;5075063;28;20379;-69
2024/01/13 13:12:08;;;;;;;1.58;1.10;;;;;;;;;;5074454;28;20376;-68
2024/01/13 13:14:33;;;;;;;1.10;0.90;;;;;;;;;;5074735;28;20034;-68
2024/01/13 13:16:59;;;;;;;2.10;1.63;;;;;;;;;;5074668;28;20056;-69
2024/01/13 13:19:27;;;;;;;2.03;1.40;;;;;;;;;;5074678;28;20024;-69
2024/01/13 13:21:52;;;;;;;1.63;1.15;;;;;;;;;;5074406;28;20028;-69
2024/01/13 13:24:18;;;;;;;0.75;0.75;;;;;;;;;;5056453;28;20032;-69
2024/01/13 13:26:43;;;;;;;2.58;1.10;;;;;;;;;;5074551;28;20020;-69
2024/01/13 13:29:09;;;;;;;1.55;1.30;;;;;;;;;;5074481;28;20332;-68
2024/01/13 13:31:34;;;;;;;1.05;0.90;;;;;;;;;;5073916;28;20020;-69
2024/01/13 13:34:00;;;;;;;0.80;0.77;;;;;;;;;;5074430;28;20017;-68
2024/01/13 13:36:25;;;;;;;1.58;1.05;;;;;;;;;;5074428;28;20017;-67
2024/01/13 13:38:51;;;;;;;1.75;1.15;;;;;;;;;;5074323;28;20142;-68
2024/01/13 13:41:16;;;;;;;1.27;1.00;;;;;;;;;;5074259;28;20028;-69
2024/01/13 13:43:43;;;;;;;2.35;1.10;;;;;;;;;;5056391;28;20473;-69
2024/01/13 13:46:08;;;;;;;2.20;1.30;;;;;;;;;;5073864;28;20028;-69
2024/01/13 13:48:36;;;;;;;2.42;1.10;;;;;;;;;;5073960;28;20033;-69
2024/01/13 13:51:02;;;;;;;1.92;1.20;;;;;;;;;;5073392;28;20033;-68
2024/01/13 13:53:27;;;;;;;1.92;0.80;;;;;;;;;;5073950;28;20055;-69
2024/01/13 13:55:53;;;;;;;2.67;1.05;;;;;;;;;;5073945;28;20020;-69
2024/01/13 13:58:18;;;;;;;1.00;0.90;;;;;;;;;;5073325;28;20064;-68
2024/01/13 14:00:44;;;;;;;2.17;1.08;;;;;;;;;;5073585;28;20036;-68
2024/01/13 14:03:09;;;;;;;3.55;1.13;;;;;;;;;;5073781;28;20055;-69
2024/01/13 14:05:35;;;;;;;3.40;1.35;;;;;;;;;;5073373;28;20032;-69
2024/01/13 14:08:00;;;;;;;2.28;1.55;;;;;;;;;;5073199;28;20025;-69
2024/01/13 14:10:26;;;;;;;1.95;1.30;;;;;;;;;;5073699;28;20044;-69
2024/01/13 14:12:52;;;;;;;2.88;1.40;;;;;;;;;;5073578;28;20025;-69
2024/01/13 14:15:17;;;;;;;0.93;0.82;;;;;;;;;;5073548;28;20020;-69
2024/01/13 14:17:43;;;;;;;2.97;1.10;;;;;;;;;;5073469;28;20122;-69
2024/01/13 14:20:09;;;;;;;2.13;1.33;;;;;;;;;;5055094;28;20205;-69
2024/01/13 14:22:34;;;;;;;2.80;1.40;;;;;;;;;;5073383;28;20031;-69
2024/01/13 14:25:00;;;;;;;2.30;1.60;;;;;;;;;;5073322;28;20024;-69
2024/01/13 14:27:25;;;;;;;1.52;1.27;;;;;;;;;;5073031;28;20028;-69
2024/01/13 14:29:51;;;;;;;2.58;1.48;;;;;;;;;;5073021;28;20025;-69
2024/01/13 14:32:16;;;;;;;5.25;1.83;;;;;;;;;;5072953;28;20390;-68
2024/01/13 14:34:42;;;;;;;3.30;1.90;;;;;;;;;;5072897;28;20090;-68
2024/01/13 14:37:08;;;;;;;2.47;1.40;;;;;;;;;;5073192;28;20024;-68